»·PEaware :: PAA22 KASE-KSFO

PAA22 :: KASE-KSFO

FLIGHT INFORMATION

Flight Status: Arrived
Operator:
PanAm
More flights by this operator :: More flights under this callsign
Pilot: Stefan D. (14429)
Aircraft: BOEING 737-200
(B732)
More flights by this aircraft type
Origin: KASE Aspen-Pitkin Co/Sardy
United States
Destination: KSFO San Francisco Intl
United States
More flights between these airports :: More routes between these airports
Route: +LINDZ8 JNC J80 OAL MOD8
File this flight plan on PilotEdge
Remarks:
Altitude:
(Current/Filed)
36,000ft
Speed:
(Current/Filed)
450kts
Departed: 09-Mar-18 12:57 PM
Arrived: 09-Mar-18 03:02 PM
Distance/Time
Traveled:
735nm/2:05
Distance/Time
To Go:
Arrived

Flight Plot

Page will automatically refresh every two minutes.

Flight plan parsing failed; only flown route is shown


Map Options




Map Legend


Flown Route
Filed Route
Departure Airport
Arrival Airport
Navaid (VOR, NDB)
Fix

Horizontal Profiles

Position Reports

Time Latitude Longitude Heading Altitude Ground
Speed
09-Mar-18 12:35 39.224136 -106.867375 249 7734ft 0kts
09-Mar-18 12:36 39.224136 -106.867375 249 7734ft 0kts
09-Mar-18 12:37 39.224136 -106.867374 249 7734ft 0kts
09-Mar-18 12:38 39.224136 -106.867374 249 7734ft 0kts
09-Mar-18 12:39 39.224136 -106.867374 249 7734ft 0kts
09-Mar-18 12:40 39.224136 -106.867374 249 7734ft 0kts
09-Mar-18 12:41 39.224136 -106.867374 249 7734ft 0kts
09-Mar-18 12:42 39.224136 -106.867374 249 7734ft 0kts
09-Mar-18 12:43 39.224136 -106.867374 249 7734ft 0kts
09-Mar-18 12:44 39.224136 -106.867374 249 7734ft 0kts
09-Mar-18 12:45 39.224136 -106.867374 249 7734ft 0kts
09-Mar-18 12:46 39.224136 -106.867374 249 7734ft 0kts
09-Mar-18 12:47 39.224136 -106.867374 249 7734ft 0kts
09-Mar-18 12:48 39.224136 -106.867374 249 7734ft 0kts
09-Mar-18 12:49 39.224136 -106.867375 249 7734ft 0kts
09-Mar-18 12:50 39.224136 -106.867375 249 7734ft 0kts
09-Mar-18 12:51 39.222530 -106.867341 159 7750ft 12kts
09-Mar-18 12:52 39.218303 -106.865334 160 7791ft 17kts
09-Mar-18 12:53 39.215467 -106.863955 158 7817ft 0kts
09-Mar-18 12:54 39.214154 -106.863326 160 7821ft 25kts
09-Mar-18 12:55 39.212319 -106.862483 172 7821ft 0kts
09-Mar-18 12:56 39.220994 -106.867843 339 7764ft 126kts
09-Mar-18 12:57 39.263306 -106.882918 347 9114ft 170kts
09-Mar-18 12:58 39.288559 -106.935388 280 10210ft 225kts
09-Mar-18 12:59 39.301755 -107.018289 280 12593ft 242kts
09-Mar-18 13:00 39.342174 -107.088701 307 15032ft 252kts
09-Mar-18 13:01 39.388666 -107.167578 277 16258ft 290kts
09-Mar-18 13:02 39.366298 -107.273702 256 17368ft 329kts
09-Mar-18 13:03 39.343577 -107.387814 256 19476ft 331kts
09-Mar-18 13:04 39.320692 -107.503482 256 21255ft 335kts
09-Mar-18 13:05 39.297357 -107.620258 257 22804ft 340kts
09-Mar-18 13:06 39.273752 -107.738344 256 24202ft 344kts
09-Mar-18 13:07 39.251013 -107.852312 256 25379ft 348kts
09-Mar-18 13:08 39.226796 -107.974004 257 26458ft 353kts
09-Mar-18 13:09 39.202270 -108.096709 257 27425ft 356kts
09-Mar-18 13:10 39.177329 -108.220519 257 28296ft 359kts
09-Mar-18 13:11 39.152108 -108.345058 257 29060ft 362kts
09-Mar-18 13:12 39.126506 -108.470502 257 29728ft 364kts
09-Mar-18 13:13 39.100266 -108.597741 257 30033ft 374kts
09-Mar-18 13:14 39.073740 -108.726876 257 30043ft 386kts
09-Mar-18 13:14 39.054582 -108.839504 264 30047ft 391kts
09-Mar-18 13:16 39.039631 -109.002656 264 30036ft 397kts
09-Mar-18 13:17 39.026008 -109.144262 263 30028ft 401kts
09-Mar-18 13:17 39.010388 -109.262423 260 30023ft 404kts
09-Mar-18 13:19 38.989400 -109.429062 262 30022ft 408kts
09-Mar-18 13:20 38.964719 -109.571133 259 30020ft 410kts
09-Mar-18 13:20 38.946987 -109.690356 260 30031ft 412kts
09-Mar-18 13:21 38.927108 -109.835371 260 30029ft 416kts
09-Mar-18 13:22 38.907516 -109.982372 260 30027ft 419kts
09-Mar-18 13:23 38.887280 -110.127857 260 30027ft 421kts
09-Mar-18 13:24 38.862782 -110.274947 256 30030ft 424kts
09-Mar-18 13:25 38.835485 -110.421638 258 30033ft 425kts
09-Mar-18 13:26 38.809822 -110.569291 258 30031ft 426kts
09-Mar-18 13:28 38.784318 -110.715140 257 30040ft 427kts
09-Mar-18 13:29 38.758257 -110.863919 257 30039ft 429kts
09-Mar-18 13:30 38.732244 -111.012209 258 30035ft 427kts
09-Mar-18 13:31 38.706187 -111.159813 258 30035ft 427kts
09-Mar-18 13:32 38.679664 -111.308248 258 30033ft 428kts
09-Mar-18 13:33 38.653137 -111.456510 258 30031ft 428kts
09-Mar-18 13:34 38.626797 -111.601899 258 30030ft 428kts
09-Mar-18 13:35 38.599902 -111.747667 260 30027ft 420kts
09-Mar-18 13:36 38.573865 -111.889453 260 30094ft 411kts
09-Mar-18 13:37 38.547549 -112.031723 260 30098ft 412kts
09-Mar-18 13:38 38.521001 -112.174119 260 30071ft 414kts
09-Mar-18 13:39 38.494047 -112.317348 260 30019ft 416kts
09-Mar-18 13:40 38.466890 -112.461103 260 30013ft 416kts
09-Mar-18 13:41 38.439642 -112.604026 260 30010ft 416kts
09-Mar-18 13:42 38.412389 -112.745595 259 30021ft 417kts
09-Mar-18 13:43 38.384716 -112.888689 259 30024ft 416kts
09-Mar-18 13:44 38.357761 -113.027524 260 30021ft 399kts
09-Mar-18 13:45 38.333802 -113.163227 264 30016ft 388kts
09-Mar-18 13:46 38.321775 -113.297254 268 30008ft 376kts
09-Mar-18 13:47 38.313132 -113.429070 268 30011ft 372kts
09-Mar-18 13:48 38.304990 -113.560677 268 30011ft 375kts
09-Mar-18 13:49 38.296594 -113.692721 267 30027ft 377kts
09-Mar-18 13:50 38.288035 -113.825779 267 30024ft 380kts
09-Mar-18 13:51 38.279411 -113.960140 267 30016ft 382kts
09-Mar-18 13:52 38.270607 -114.094802 267 30033ft 383kts
09-Mar-18 13:53 38.251701 -114.228487 263 30046ft 385kts
09-Mar-18 13:54 38.238203 -114.363092 267 30045ft 384kts
09-Mar-18 13:55 38.229669 -114.497698 268 30046ft 383kts
09-Mar-18 13:56 38.222037 -114.632716 268 30042ft 383kts
09-Mar-18 13:57 38.213858 -114.766595 268 30059ft 385kts
09-Mar-18 13:58 38.206025 -114.902168 268 30057ft 386kts
09-Mar-18 13:59 38.198062 -115.038591 268 30056ft 387kts
09-Mar-18 14:00 38.189949 -115.174587 268 30051ft 386kts
09-Mar-18 14:01 38.181756 -115.308903 267 30046ft 385kts
09-Mar-18 14:02 38.173377 -115.444181 267 30048ft 384kts
09-Mar-18 14:03 38.164730 -115.579152 268 30045ft 383kts
09-Mar-18 14:04 38.156043 -115.712322 267 30071ft 382kts
09-Mar-18 14:05 38.147146 -115.846746 267 30074ft 383kts
09-Mar-18 14:06 38.138137 -115.981860 267 30073ft 384kts
09-Mar-18 14:07 38.129027 -116.116666 266 30070ft 384kts
09-Mar-18 14:08 38.119681 -116.251651 266 30070ft 384kts
09-Mar-18 14:09 38.110202 -116.386485 267 30067ft 384kts
09-Mar-18 14:10 38.100712 -116.521105 267 30064ft 383kts
09-Mar-18 14:11 38.091107 -116.654299 266 30060ft 382kts
09-Mar-18 14:12 38.081008 -116.787717 266 30080ft 383kts
09-Mar-18 14:13 38.070886 -116.922703 266 30074ft 384kts
09-Mar-18 14:14 38.060713 -117.056938 265 30068ft 378kts
09-Mar-18 14:15 38.050634 -117.187747 265 30065ft 369kts
09-Mar-18 14:16 38.040587 -117.316178 265 30067ft 363kts
09-Mar-18 14:17 38.030549 -117.442715 266 30063ft 360kts
09-Mar-18 14:18 38.020418 -117.568809 265 30064ft 357kts
09-Mar-18 14:19 37.998099 -117.688945 259 30074ft 357kts
09-Mar-18 14:20 37.981176 -117.812096 263 30052ft 360kts
09-Mar-18 14:21 37.967658 -117.938520 264 30029ft 364kts
09-Mar-18 14:22 37.954845 -118.065647 263 30017ft 366kts
09-Mar-18 14:23 37.941997 -118.193493 264 30012ft 367kts
09-Mar-18 14:24 37.928904 -118.321751 264 30011ft 367kts
09-Mar-18 14:25 37.915750 -118.449712 264 30042ft 367kts
09-Mar-18 14:26 37.902585 -118.577215 264 30078ft 366kts
09-Mar-18 14:27 37.888337 -118.698657 263 30099ft 366kts
09-Mar-18 14:42 37.674887 -120.572505 257 25423ft 385kts
09-Mar-18 14:43 37.659418 -120.698386 256 23576ft 389kts
09-Mar-18 14:44 37.645989 -120.806671 256 22067ft 392kts
09-Mar-18 14:45 37.629812 -120.936829 255 20303ft 397kts
09-Mar-18 14:46 37.612702 -121.072611 257 18834ft 395kts
09-Mar-18 14:47 37.595700 -121.207062 259 17291ft 389kts
09-Mar-18 14:48 37.578836 -121.339320 259 15592ft 390kts
09-Mar-18 14:49 37.562977 -121.462235 259 13959ft 390kts
09-Mar-18 14:50 37.545587 -121.595774 260 12323ft 391kts
09-Mar-18 14:51 37.521234 -121.726632 256 11028ft 386kts
09-Mar-18 14:52 37.497026 -121.842354 256 9860ft 288kts
09-Mar-18 14:53 37.487699 -121.931924 263 8148ft 252kts
09-Mar-18 14:54 37.479470 -122.014727 263 6670ft 251kts
09-Mar-18 14:55 37.501343 -122.090461 297 4858ft 245kts
09-Mar-18 14:56 37.533257 -122.166476 298 3434ft 239kts
09-Mar-18 14:57 37.562585 -122.236008 298 2183ft 214kts
09-Mar-18 14:58 37.585956 -122.291524 299 1194ft 151kts
09-Mar-18 14:59 37.604377 -122.335294 299 443ft 142kts
09-Mar-18 15:00 37.621214 -122.375281 300 18ft 72kts
09-Mar-18 15:01 37.620881 -122.377623 222 18ft 0kts
09-Mar-18 15:02 37.618079 -122.379599 156 18ft 14kts
09-Mar-18 15:03 37.616090 -122.381548 296 18ft 12kts
09-Mar-18 15:04 37.616778 -122.381714 24 18ft 0kts
09-Mar-18 15:05 37.616778 -122.381714 24 18ft 0kts
09-Mar-18 15:06 37.616778 -122.381714 24 18ft 0kts
09-Mar-18 15:07 37.616778 -122.381714 24 18ft 0kts
09-Mar-18 15:08 37.616778 -122.381714 24 18ft 0kts
09-Mar-18 15:09 37.616778 -122.381714 24 18ft 0kts
09-Mar-18 15:10 37.616778 -122.381714 24 18ft 0kts
09-Mar-18 15:11 37.616778 -122.381714 24 18ft 0kts
09-Mar-18 15:12 37.616778 -122.381714 24 18ft 0kts

Navigation Log

Ident Type
Flight plan parsing failed, navigation log unavailable